Time;durP1;ratioP1;P1;durP2;ratioP2;P2;SDS_P1;SDS_P2;PMS_P1;PMS_P2;Temp;Humidity;BMP_temperature;BMP_pressure;BME280_temperature;BME280_humidity;BME280_pressure;Samples;Min_cycle;Max_cycle;Signal;HPM_P1;HPM_P2
2022/07/08 00:00:07;;;;;;;468.43;422.67;;;;;;;22.84;76.78;99457.03;343599;28;2569;-77
2022/07/08 00:00:18;;;;;;;466.63;420.95;;;;;;;22.84;76.53;99463.22;343890;28;925;-77
2022/07/08 00:00:28;;;;;;;462.75;417.25;;;;;;;22.86;76.50;99457.72;343857;28;1275;-77
2022/07/08 00:00:39;;;;;;;458.83;413.40;;;;;;;22.88;76.33;99448.59;343955;28;928;-77
2022/07/08 00:00:49;;;;;;;460.45;414.77;;;;;;;22.91;76.60;99451.97;342438;28;1604;-77
2022/07/08 00:01:00;;;;;;;464.03;418.13;;;;;;;22.92;76.62;99450.97;342576;28;916;-77
2022/07/08 00:01:10;;;;;;;466.65;420.30;;;;;;;22.93;76.36;99455.31;342417;28;1208;-77
2022/07/08 00:01:21;;;;;;;462.33;416.27;;;;;;;22.95;76.72;99453.34;343877;28;803;-77
2022/07/08 00:01:33;;;;;;;460.00;414.08;;;;;;;22.97;76.32;99454.84;345300;28;841;-77
2022/07/08 00:01:43;;;;;;;458.02;412.60;;;;;;;22.97;76.56;99449.53;343793;28;1312;-77
2022/07/08 00:01:57;;;;;;;456.73;411.42;;;;;;;23.02;76.01;99452.59;342799;28;1868;-77
2022/07/08 00:02:07;;;;;;;454.67;409.60;;;;;;;23.06;75.87;99456.66;341246;29;853;-77
2022/07/08 00:02:18;;;;;;;456.08;410.88;;;;;;;23.07;75.17;99457.50;343669;28;1316;-77
2022/07/08 00:02:28;;;;;;;455.13;409.87;;;;;;;23.05;75.63;99456.81;341556;28;3132;-77
2022/07/08 00:02:39;;;;;;;456.13;410.87;;;;;;;23.05;75.48;99454.13;343336;28;3043;-77
2022/07/08 00:02:49;;;;;;;458.25;412.70;;;;;;;23.01;75.40;99458.09;342266;28;1931;-77
2022/07/08 00:02:59;;;;;;;460.10;414.58;;;;;;;22.95;75.46;99453.34;341234;29;977;-77
2022/07/08 00:03:10;;;;;;;463.20;417.53;;;;;;;22.95;75.29;99456.03;342548;28;882;-77
2022/07/08 00:03:21;;;;;;;457.80;412.67;;;;;;;22.97;75.66;99452.19;342578;28;879;-77
2022/07/08 00:03:31;;;;;;;454.80;409.65;;;;;;;22.98;75.29;99453.03;342851;28;1705;-78
2022/07/08 00:03:43;;;;;;;453.35;408.38;;;;;;;22.94;75.24;99457.00;344910;28;1673;-78
2022/07/08 00:03:53;;;;;;;452.55;407.48;;;;;;;22.86;75.60;99453.22;342428;28;1452;-77
2022/07/08 00:04:04;;;;;;;450.48;405.48;;;;;;;22.83;75.56;99456.19;343892;28;1382;-77
2022/07/08 00:04:14;;;;;;;453.47;408.33;;;;;;;22.81;75.87;99458.16;346372;28;1179;-77
2022/07/08 00:04:24;;;;;;;457.98;412.60;;;;;;;22.83;75.45;99461.53;345224;28;944;-77
2022/07/08 00:04:35;;;;;;;462.13;416.63;;;;;;;22.82;75.66;99459.84;342967;28;2106;-77
2022/07/08 00:04:45;;;;;;;461.37;415.80;;;;;;;22.83;75.99;99456.19;342739;28;1743;-77
2022/07/08 00:04:56;;;;;;;465.98;420.25;;;;;;;22.86;75.50;99460.41;343925;28;1027;-77
2022/07/08 00:05:07;;;;;;;469.27;423.53;;;;;;;22.89;75.61;99457.44;342508;28;1190;-77
2022/07/08 00:05:17;;;;;;;467.55;421.85;;;;;;;22.93;75.15;99455.31;342444;28;1271;-77
2022/07/08 00:05:27;;;;;;;459.85;414.52;;;;;;;22.95;75.10;99456.03;343842;28;1259;-77
2022/07/08 00:05:38;;;;;;;461.17;415.80;;;;;;;22.98;75.20;99463.72;345339;28;941;-77
2022/07/08 00:05:48;;;;;;;460.33;415.00;;;;;;;22.98;75.03;99455.69;342542;28;915;-77
2022/07/08 00:05:59;;;;;;;462.43;416.90;;;;;;;23.03;75.16;99456.94;343851;28;763;-77
2022/07/08 00:06:09;;;;;;;461.33;415.67;;;;;;;23.06;75.55;99459.34;343829;28;1511;-77
2022/07/08 00:06:20;;;;;;;467.67;421.80;;;;;;;23.08;75.37;99454.69;343747;28;1348;-77
2022/07/08 00:06:30;;;;;;;465.83;420.23;;;;;;;23.08;75.49;99453.84;343871;28;1060;-77
2022/07/08 00:06:40;;;;;;;463.13;417.67;;;;;;;23.09;75.47;99459.03;343772;28;933;-77
2022/07/08 00:06:51;;;;;;;457.70;412.57;;;;;;;23.10;75.28;99462.56;342608;28;1071;-77
2022/07/08 00:07:02;;;;;;;455.70;410.63;;;;;;;23.10;74.76;99458.06;345182;28;1223;-77
2022/07/08 00:07:12;;;;;;;448.15;403.25;;;;;;;23.10;74.28;99457.22;345102;28;1408;-77
2022/07/08 00:07:22;;;;;;;446.13;401.00;;;;;;;23.11;74.30;99454.41;343761;28;1346;-77
2022/07/08 00:07:33;;;;;;;447.92;402.70;;;;;;;23.10;74.37;99455.38;342612;28;845;-77
2022/07/08 00:07:43;;;;;;;450.77;405.53;;;;;;;23.10;74.02;99462.56;343942;28;869;-77
2022/07/08 00:07:54;;;;;;;450.53;405.50;;;;;;;22.99;74.25;99452.88;343862;28;1212;-77
2022/07/08 00:08:04;;;;;;;452.05;407.02;;;;;;;22.98;73.62;99459.22;343785;28;1503;-77
2022/07/08 00:08:15;;;;;;;453.87;408.67;;;;;;;22.93;73.95;99461.50;346540;28;1267;-77
2022/07/08 00:08:27;;;;;;;450.45;405.25;;;;;;;22.82;74.40;99459.84;345251;28;1263;-77
2022/07/08 00:08:37;;;;;;;446.02;400.90;;;;;;;22.75;75.01;99464.03;343976;28;802;-77
2022/07/08 00:08:47;;;;;;;451.23;405.97;;;;;;;22.72;75.19;99466.16;343789;28;1299;-77
2022/07/08 00:08:58;;;;;;;454.88;409.50;;;;;;;22.68;74.87;99459.41;343707;28;1505;-77
2022/07/08 00:09:10;;;;;;;455.60;410.27;;;;;;;22.67;75.03;99455.91;345105;28;1230;-77
2022/07/08 00:09:20;;;;;;;450.02;404.85;;;;;;;22.69;75.31;99458.44;345227;28;852;-77
2022/07/08 00:09:31;;;;;;;450.63;405.57;;;;;;;22.71;74.93;99456.47;345271;28;960;-77
2022/07/08 00:09:41;;;;;;;458.45;413.23;;;;;;;22.72;75.22;99463.47;345202;28;1743;-77
2022/07/08 00:09:51;;;;;;;465.30;419.93;;;;;;;22.72;75.47;99458.16;344128;28;847;-77
2022/07/08 00:10:05;;;;;;;465.35;419.90;;;;;;;22.72;75.41;99459.00;341107;29;1348;-77
2022/07/08 00:10:16;;;;;;;463.38;417.80;;;;;;;22.73;75.13;99459.81;341288;29;1325;-77
2022/07/08 00:10:26;;;;;;;465.00;419.30;;;;;;;22.72;75.22;99461.66;343921;28;1693;-77
2022/07/08 00:10:36;;;;;;;465.77;420.30;;;;;;;22.69;75.61;99459.28;343459;28;1935;-77
2022/07/08 00:10:47;;;;;;;468.83;423.33;;;;;;;22.67;75.50;99461.25;345018;28;1841;-77
2022/07/08 00:10:57;;;;;;;473.77;428.17;;;;;;;22.65;75.70;99457.88;346620;28;833;-77
2022/07/08 00:11:08;;;;;;;477.73;431.95;;;;;;;22.63;75.83;99459.00;346482;28;1187;-77
2022/07/08 00:11:18;;;;;;;476.53;430.77;;;;;;;22.59;76.32;99463.78;343998;28;948;-77
2022/07/08 00:11:29;;;;;;;469.35;423.75;;;;;;;22.61;75.74;99459.13;343959;28;838;-77
2022/07/08 00:11:40;;;;;;;466.83;421.47;;;;;;;22.65;76.07;99463.22;342107;28;4014;-77
2022/07/08 00:11:51;;;;;;;460.88;415.80;;;;;;;22.67;75.74;99455.91;342264;28;3037;-77
2022/07/08 00:12:02;;;;;;;466.67;421.17;;;;;;;22.70;75.54;99460.13;342209;28;1673;-77
2022/07/08 00:12:12;;;;;;;464.97;419.40;;;;;;;22.74;75.63;99462.34;343587;28;2695;-77
2022/07/08 00:12:22;;;;;;;470.85;424.92;;;;;;;22.76;75.42;99460.38;341157;29;866;-77
2022/07/08 00:12:33;;;;;;;467.10;421.43;;;;;;;22.80;75.42;99461.81;342448;28;1305;-77
2022/07/08 00:12:43;;;;;;;472.73;427.13;;;;;;;22.85;75.38;99464.91;342500;28;1235;-77
2022/07/08 00:12:54;;;;;;;471.77;426.23;;;;;;;22.88;74.91;99464.59;343686;28;1914;-78
2022/07/08 00:13:04;;;;;;;472.07;426.53;;;;;;;22.91;74.84;99467.97;343543;28;1792;-78
2022/07/08 00:13:14;;;;;;;471.17;425.55;;;;;;;22.92;75.15;99458.97;342533;28;1012;-77
2022/07/08 00:13:25;;;;;;;473.00;427.27;;;;;;;22.94;75.03;99459.69;344494;28;2135;-78
2022/07/08 00:13:35;;;;;;;471.35;425.75;;;;;;;22.95;75.01;99461.38;344438;28;1245;-78
2022/07/08 00:13:46;;;;;;;463.60;418.10;;;;;;;22.94;74.79;99462.34;343958;28;818;-78
2022/07/08 00:13:56;;;;;;;460.58;415.17;;;;;;;22.95;75.09;99461.38;343753;28;1294;-77
2022/07/08 00:14:07;;;;;;;460.77;415.27;;;;;;;22.96;74.75;99465.72;343616;28;1201;-77
2022/07/08 00:14:17;;;;;;;461.73;416.25;;;;;;;22.95;75.28;99458.69;342571;28;822;-77
2022/07/08 00:14:27;;;;;;;459.77;414.23;;;;;;;22.96;74.88;99455.03;341946;28;1679;-77
2022/07/08 00:14:38;;;;;;;458.73;413.13;;;;;;;22.98;74.88;99461.03;341297;29;1003;-77
2022/07/08 00:14:48;;;;;;;458.65;413.05;;;;;;;22.97;74.51;99462.88;340473;29;1395;-77
2022/07/08 00:14:59;;;;;;;463.33;417.67;;;;;;;22.99;74.63;99470.72;342614;28;1248;-78
2022/07/08 00:15:09;;;;;;;462.42;417.00;;;;;;;23.02;74.40;99467.78;342514;28;901;-78
2022/07/08 00:15:23;;;;;;;462.47;417.17;;;;;;;23.01;74.18;99469.59;342581;28;963;-78
2022/07/08 00:15:33;;;;;;;459.27;414.15;;;;;;;23.03;74.13;99466.78;345242;28;1560;-78
2022/07/08 00:15:43;;;;;;;461.57;416.23;;;;;;;23.03;74.07;99462.28;343846;28;1176;-78
2022/07/08 00:15:54;;;;;;;460.25;414.67;;;;;;;23.05;74.04;99460.31;343908;28;1326;-78
2022/07/08 00:16:05;;;;;;;464.23;418.60;;;;;;;23.07;74.78;99462.84;343672;28;1558;-78
2022/07/08 00:16:15;;;;;;;461.35;415.95;;;;;;;23.07;74.34;99458.34;341108;29;1989;-78
2022/07/08 00:16:26;;;;;;;461.20;416.03;;;;;;;23.08;74.57;99464.53;345220;28;1275;-78
2022/07/08 00:16:40;;;;;;;457.42;412.35;;;;;;;23.11;74.80;99459.75;346525;28;1554;-78
2022/07/08 00:16:50;;;;;;;455.20;410.08;;;;;;;23.12;74.92;99460.59;345105;28;1401;-78
2022/07/08 00:17:01;;;;;;;453.63;408.48;;;;;;;23.12;75.17;99456.09;342501;28;825;-77
2022/07/08 00:17:11;;;;;;;455.23;410.13;;;;;;;23.13;75.32;99465.78;343640;28;2490;-77
2022/07/08 00:17:22;;;;;;;457.00;411.80;;;;;;;23.14;74.71;99462.13;342503;28;885;-77
2022/07/08 00:17:32;;;;;;;456.77;411.57;;;;;;;23.15;74.62;99462.97;342627;28;976;-77
2022/07/08 00:17:42;;;;;;;450.00;405.00;;;;;;;23.15;74.91;99469.13;343889;28;1357;-77
2022/07/08 00:17:53;;;;;;;443.30;398.55;;;;;;;23.16;75.06;99465.47;342488;28;1200;-77
2022/07/08 00:18:03;;;;;;;440.13;395.43;;;;;;;23.16;74.65;99462.81;341184;28;1213;-77
2022/07/08 00:18:14;;;;;;;443.35;398.55;;;;;;;23.17;74.57;99459.16;341081;28;1475;-77
2022/07/08 00:18:24;;;;;;;447.23;402.30;;;;;;;23.17;74.58;99460.97;342505;28;1318;-77
2022/07/08 00:18:34;;;;;;;448.95;403.98;;;;;;;23.18;74.13;99460.00;343779;28;1338;-77
2022/07/08 00:18:45;;;;;;;446.30;401.40;;;;;;;23.17;74.56;99459.16;343827;28;1186;-77
2022/07/08 00:18:55;;;;;;;445.83;401.03;;;;;;;23.18;74.55;99465.34;342472;28;1467;-77
2022/07/08 00:19:14;;;;;;;446.63;401.88;;;;;;;23.19;74.52;99467.03;343946;28;1298;-77
2022/07/08 00:19:25;;;;;;;445.92;401.33;;;;;;;23.21;74.12;99465.03;345139;28;863;-77
2022/07/08 00:19:35;;;;;;;442.23;397.83;;;;;;;23.20;74.23;99464.19;343837;28;1406;-77
2022/07/08 00:19:46;;;;;;;441.57;397.03;;;;;;;23.20;74.18;99463.38;342632;28;1192;-77
2022/07/08 00:19:56;;;;;;;443.63;398.92;;;;;;;23.20;74.18;99458.03;345163;28;1287;-77
2022/07/08 00:20:08;;;;;;;442.73;398.00;;;;;;;23.19;74.72;99461.69;345303;28;868;-77
2022/07/08 00:20:19;;;;;;;440.15;395.42;;;;;;;23.19;74.47;99461.69;345073;28;1360;-77
2022/07/08 00:20:29;;;;;;;437.37;392.60;;;;;;;23.20;74.60;99460.69;343911;28;933;-77
2022/07/08 00:20:40;;;;;;;438.80;393.80;;;;;;;23.19;74.94;99461.69;341151;28;1198;-77
2022/07/08 00:20:50;;;;;;;439.43;394.53;;;;;;;23.20;74.52;99460.69;340112;28;3189;-77
2022/07/08 00:21:00;;;;;;;441.40;396.60;;;;;;;23.21;74.78;99459.72;341618;28;3232;-77
2022/07/08 00:21:11;;;;;;;438.63;393.80;;;;;;;23.23;74.68;99463.06;343909;28;882;-77
2022/07/08 00:21:21;;;;;;;438.88;393.83;;;;;;;23.23;74.89;99463.06;342209;28;1976;-77
2022/07/08 00:21:32;;;;;;;436.70;391.70;;;;;;;23.23;75.03;99450.56;340941;29;2928;-77
2022/07/08 00:21:43;;;;;;;437.05;392.30;;;;;;;23.24;75.36;99462.09;343671;28;1298;-77
2022/07/08 00:21:54;;;;;;;438.27;393.55;;;;;;;23.26;75.45;99460.09;345180;28;1470;-77
2022/07/08 00:22:04;;;;;;;436.98;392.30;;;;;;;23.25;75.66;99461.09;342653;28;980;-77
2022/07/08 00:22:15;;;;;;;441.43;396.53;;;;;;;23.25;75.77;99461.09;343787;28;935;-77
2022/07/08 00:22:25;;;;;;;443.67;398.60;;;;;;;23.26;76.06;99462.78;339851;29;1039;-77
2022/07/08 00:22:36;;;;;;;445.53;400.17;;;;;;;23.26;76.20;99452.09;341506;28;1412;-77
2022/07/08 00:22:46;;;;;;;440.83;395.45;;;;;;;23.26;75.77;99454.75;343916;28;1322;-77
2022/07/08 00:22:57;;;;;;;430.70;385.70;;;;;;;23.27;76.30;99459.13;343869;28;1310;-77
2022/07/08 00:23:07;;;;;;;422.90;378.40;;;;;;;23.25;76.02;99454.91;345214;28;1398;-77
2022/07/08 00:23:18;;;;;;;420.07;375.77;;;;;;;23.25;76.25;99457.59;343878;28;1059;-77
2022/07/08 00:23:28;;;;;;;421.63;377.25;;;;;;;23.25;75.64;99465.59;343830;28;1266;-78
2022/07/08 00:23:38;;;;;;;425.00;380.50;;;;;;;23.23;75.61;99457.72;341208;28;1335;-77
2022/07/08 00:23:49;;;;;;;428.42;383.75;;;;;;;23.25;75.54;99461.09;342603;28;849;-77
2022/07/08 00:24:00;;;;;;;429.17;384.33;;;;;;;23.25;75.49;99457.59;346495;28;1304;-77
2022/07/08 00:24:11;;;;;;;427.35;382.58;;;;;;;23.23;75.94;99457.72;346624;28;1295;-77
2022/07/08 00:24:21;;;;;;;421.17;376.75;;;;;;;23.23;75.90;99463.91;346634;28;762;-77
2022/07/08 00:24:32;;;;;;;424.43;380.03;;;;;;;23.22;75.87;99456.06;345216;28;1290;-77
2022/07/08 00:24:42;;;;;;;428.27;383.55;;;;;;;23.25;75.82;99466.44;342517;28;971;-77
2022/07/08 00:24:53;;;;;;;429.53;384.63;;;;;;;23.24;76.04;99464.75;342814;28;1506;-77
2022/07/08 00:25:04;;;;;;;428.35;383.38;;;;;;;23.24;76.16;99462.09;341187;29;1366;-77
2022/07/08 00:25:14;;;;;;;426.80;382.05;;;;;;;23.22;76.14;99458.72;343657;28;1419;-77
2022/07/08 00:25:25;;;;;;;429.58;384.70;;;;;;;23.22;76.22;99456.88;343940;28;797;-77
2022/07/08 00:25:35;;;;;;;429.57;384.70;;;;;;;23.23;76.22;99457.72;343985;28;991;-77
2022/07/08 00:25:46;;;;;;;423.65;379.15;;;;;;;23.22;76.30;99462.22;342539;28;850;-77
2022/07/08 00:25:56;;;;;;;425.47;381.07;;;;;;;23.21;76.27;99457.88;341224;29;1309;-79
2022/07/08 00:26:07;;;;;;;423.08;378.85;;;;;;;23.21;76.41;99467.72;341297;29;974;-78
2022/07/08 00:26:17;;;;;;;428.97;384.43;;;;;;;23.20;76.40;99458.03;343880;28;963;-78
2022/07/08 00:26:27;;;;;;;424.35;380.00;;;;;;;23.21;76.36;99463.22;343861;28;884;-78
2022/07/08 00:26:38;;;;;;;428.13;383.57;;;;;;;23.22;76.69;99458.72;343908;28;999;-77
2022/07/08 00:26:49;;;;;;;425.40;380.85;;;;;;;23.21;76.74;99460.53;343803;28;1253;-77
2022/07/08 00:26:59;;;;;;;423.97;379.37;;;;;;;23.22;76.61;99461.38;345179;28;1299;-77
2022/07/08 00:27:10;;;;;;;423.02;378.40;;;;;;;23.21;76.46;99454.38;345137;28;1258;-77
2022/07/08 00:27:20;;;;;;;424.13;379.43;;;;;;;23.23;76.65;99460.41;344879;28;1699;-77
2022/07/08 00:27:30;;;;;;;422.10;377.55;;;;;;;23.24;76.63;99456.75;343842;28;1673;-77
2022/07/08 00:27:41;;;;;;;419.33;374.87;;;;;;;23.25;76.36;99461.09;345186;28;1192;-77
2022/07/08 00:27:51;;;;;;;419.40;375.00;;;;;;;23.24;76.42;99456.75;343963;28;880;-77
2022/07/08 00:28:02;;;;;;;422.33;377.70;;;;;;;23.24;76.62;99454.06;342505;28;1185;-77
2022/07/08 00:28:12;;;;;;;422.60;378.05;;;;;;;23.26;76.37;99461.94;341137;28;1503;-77
2022/07/08 00:28:23;;;;;;;422.83;378.23;;;;;;;23.25;76.56;99449.56;343769;28;1329;-77
2022/07/08 00:28:33;;;;;;;418.80;374.40;;;;;;;23.26;76.80;99462.78;346553;28;1354;-77
2022/07/08 00:28:43;;;;;;;420.20;375.70;;;;;;;23.27;76.36;99464.47;345301;28;886;-77
2022/07/08 00:28:54;;;;;;;422.83;378.43;;;;;;;23.27;76.43;99453.78;342489;28;1103;-77
2022/07/08 00:29:05;;;;;;;417.73;373.45;;;;;;;23.25;76.29;99455.75;344374;28;1258;-77
2022/07/08 00:29:15;;;;;;;414.90;370.83;;;;;;;23.27;76.61;99456.44;343824;28;805;-77
2022/07/08 00:29:25;;;;;;;413.50;369.42;;;;;;;23.27;76.54;99455.59;342489;28;1094;-77
2022/07/08 00:29:37;;;;;;;421.90;377.60;;;;;;;23.26;76.61;99457.44;342631;28;876;-77
2022/07/08 00:29:47;;;;;;;426.25;381.83;;;;;;;23.27;76.61;99460.94;342459;28;856;-77
2022/07/08 00:29:57;;;;;;;427.93;383.63;;;;;;;23.25;76.74;99462.94;340922;28;2630;-77
2022/07/08 00:30:09;;;;;;;433.20;388.58;;;;;;;23.25;76.05;99461.09;341939;28;4694;-77
2022/07/08 00:30:19;;;;;;;430.27;385.75;;;;;;;23.20;75.95;99460.69;343483;28;3049;-77
2022/07/08 00:30:30;;;;;;;429.80;385.15;;;;;;;23.19;75.81;99462.53;343827;28;1849;-77
2022/07/08 00:30:40;;;;;;;431.43;386.70;;;;;;;23.18;75.87;99460.00;341724;28;3188;-77
2022/07/08 00:30:51;;;;;;;431.13;386.37;;;;;;;23.19;76.07;99467.03;341641;28;1458;-77
2022/07/08 00:31:01;;;;;;;432.27;387.60;;;;;;;23.17;75.67;99459.16;339852;29;835;-77
2022/07/08 00:31:12;;;;;;;434.07;389.33;;;;;;;23.16;75.86;99459.31;339928;29;872;-77
2022/07/08 00:31:22;;;;;;;437.25;392.33;;;;;;;23.16;76.04;99457.47;339988;29;838;-77
2022/07/08 00:31:33;;;;;;;434.50;389.63;;;;;;;23.16;75.93;99461.97;341220;29;1235;-77
2022/07/08 00:31:43;;;;;;;431.88;387.05;;;;;;;23.15;75.82;99460.28;342494;28;909;-77
2022/07/08 00:31:53;;;;;;;429.47;384.83;;;;;;;23.14;75.75;99454.09;343882;28;934;-77
2022/07/08 00:32:04;;;;;;;432.83;388.23;;;;;;;23.15;75.40;99452.28;343768;28;1390;-77
2022/07/08 00:32:14;;;;;;;433.47;388.80;;;;;;;23.14;74.54;99462.13;342948;28;1866;-77
2022/07/08 00:32:25;;;;;;;435.60;390.95;;;;;;;23.15;74.62;99455.78;341181;28;1305;-77
2022/07/08 00:32:36;;;;;;;435.13;390.47;;;;;;;23.15;74.62;99461.13;344575;28;1114;-77
2022/07/08 00:32:46;;;;;;;433.75;389.30;;;;;;;23.16;74.54;99459.31;343840;28;949;-77
2022/07/08 00:32:57;;;;;;;431.20;386.65;;;;;;;23.13;74.69;99457.75;342461;28;1960;-77
2022/07/08 00:33:07;;;;;;;434.50;389.70;;;;;;;23.15;74.71;99460.28;342400;28;1172;-77
2022/07/08 00:33:18;;;;;;;438.05;393.15;;;;;;;23.13;74.57;99454.25;343850;28;848;-77
2022/07/08 00:33:28;;;;;;;438.00;393.10;;;;;;;23.12;74.78;99455.25;343388;28;1232;-77
2022/07/08 00:33:38;;;;;;;433.95;389.23;;;;;;;23.15;74.38;99454.94;343905;28;857;-77
2022/07/08 00:33:49;;;;;;;429.67;384.97;;;;;;;23.15;74.72;99457.63;342559;28;1146;-77
2022/07/08 00:33:59;;;;;;;427.10;382.57;;;;;;;23.17;74.42;99463.66;342452;28;1106;-77
2022/07/08 00:34:10;;;;;;;429.52;384.88;;;;;;;23.16;74.70;99459.31;342483;28;984;-77
2022/07/08 00:34:21;;;;;;;436.67;391.87;;;;;;;23.16;74.41;99456.63;342317;28;1812;-77
2022/07/08 00:34:31;;;;;;;442.90;397.90;;;;;;;23.18;74.40;99455.50;341103;28;1339;-77
2022/07/08 00:34:41;;;;;;;439.17;394.25;;;;;;;23.18;74.63;99460.84;342528;28;953;-77
2022/07/08 00:34:52;;;;;;;440.40;395.40;;;;;;;23.19;74.65;99459.00;342512;28;863;-77
2022/07/08 00:35:03;;;;;;;432.75;387.98;;;;;;;23.19;74.74;99451.00;341154;29;1005;-77
2022/07/08 00:35:13;;;;;;;427.20;382.77;;;;;;;23.19;74.82;99451.00;340192;28;2065;-77
2022/07/08 00:35:23;;;;;;;420.52;376.38;;;;;;;23.19;75.25;99454.50;341152;29;1466;-77
2022/07/08 00:35:34;;;;;;;418.73;374.93;;;;;;;23.21;75.40;99459.72;341141;29;1181;-77
2022/07/08 00:35:44;;;;;;;420.73;376.67;;;;;;;23.20;75.46;99453.53;343829;28;1314;-77
2022/07/08 00:35:55;;;;;;;418.42;374.30;;;;;;;23.21;75.54;99454.38;341254;28;1156;-77
2022/07/08 00:36:05;;;;;;;419.70;375.37;;;;;;;23.21;75.38;99449.03;343841;28;1204;-77
2022/07/08 00:36:16;;;;;;;424.60;380.10;;;;;;;23.21;75.94;99459.72;345099;28;1210;-77
2022/07/08 00:36:27;;;;;;;425.83;381.37;;;;;;;23.19;75.78;99453.66;343945;28;820;-77
2022/07/08 00:36:37;;;;;;;426.17;381.58;;;;;;;23.19;76.00;99453.66;343556;28;1423;-77
2022/07/08 00:36:47;;;;;;;416.08;371.92;;;;;;;23.19;75.65;99451.00;343823;28;1384;-77
2022/07/08 00:36:58;;;;;;;419.60;375.27;;;;;;;23.18;75.60;99450.16;343823;28;1216;-77
2022/07/08 00:37:08;;;;;;;423.20;378.83;;;;;;;23.19;75.63;99456.34;343884;28;893;-77
2022/07/08 00:37:19;;;;;;;425.27;380.87;;;;;;;23.19;75.60;99451.84;343774;28;2080;-77
2022/07/08 00:37:29;;;;;;;423.15;378.80;;;;;;;23.19;75.74;99451.84;345086;28;884;-77
2022/07/08 00:37:40;;;;;;;427.90;383.33;;;;;;;23.18;75.40;99449.31;343584;28;1317;-77
2022/07/08 00:37:50;;;;;;;428.58;383.88;;;;;;;23.19;75.95;99451.00;343613;28;1365;-77
2022/07/08 00:38:01;;;;;;;425.83;381.40;;;;;;;23.17;75.68;99451.16;343918;28;801;-77
2022/07/08 00:38:11;;;;;;;420.85;376.55;;;;;;;23.18;75.95;99444.81;343722;28;1334;-77
2022/07/08 00:38:22;;;;;;;424.77;380.23;;;;;;;23.18;75.60;99446.66;346346;28;1285;-77
2022/07/08 00:38:32;;;;;;;426.67;382.08;;;;;;;23.18;75.78;99449.31;346612;28;939;-77
2022/07/08 00:38:42;;;;;;;429.63;385.03;;;;;;;23.16;75.83;99451.28;343915;28;1151;-77
2022/07/08 00:38:53;;;;;;;420.55;376.13;;;;;;;23.15;75.70;99453.13;343698;28;1418;-77
2022/07/08 00:39:04;;;;;;;414.87;370.53;;;;;;;23.17;75.57;99458.31;345293;28;1015;-77
2022/07/08 00:39:14;;;;;;;411.92;367.67;;;;;;;23.17;75.56;99450.31;344446;28;4514;-77
2022/07/08 00:39:25;;;;;;;418.93;374.57;;;;;;;23.14;76.06;99446.09;345445;28;5214;-77
2022/07/08 00:39:35;;;;;;;422.50;378.10;;;;;;;23.16;76.10;99448.63;342479;28;878;-77
2022/07/08 00:39:45;;;;;;;420.07;375.87;;;;;;;23.17;75.92;99453.81;343572;28;1700;-77
2022/07/08 00:39:56;;;;;;;419.85;375.58;;;;;;;23.16;75.92;99452.13;343656;28;1325;-77
2022/07/08 00:40:07;;;;;;;423.80;379.40;;;;;;;23.17;76.04;99452.97;343783;28;795;-77
2022/07/08 00:40:17;;;;;;;424.75;380.23;;;;;;;23.16;76.00;99448.63;343799;28;1345;-77
2022/07/08 00:40:28;;;;;;;423.60;379.33;;;;;;;23.17;76.02;99452.97;342555;28;959;-77
2022/07/08 00:40:38;;;;;;;418.83;374.77;;;;;;;23.16;76.37;99452.13;343854;28;1184;-77
2022/07/08 00:40:48;;;;;;;420.77;376.63;;;;;;;23.17;76.16;99452.97;343708;28;1263;-77
2022/07/08 00:40:59;;;;;;;415.30;371.13;;;;;;;23.18;76.37;99454.66;341150;28;973;-79
2022/07/08 00:41:10;;;;;;;418.40;374.03;;;;;;;23.16;76.08;99451.28;341056;28;1302;-78
2022/07/08 00:41:21;;;;;;;419.10;374.80;;;;;;;23.16;76.40;99452.13;342506;28;1307;-78
2022/07/08 00:41:31;;;;;;;422.40;378.00;;;;;;;23.15;75.98;99449.59;343771;28;1269;-78
2022/07/08 00:41:42;;;;;;;414.83;370.92;;;;;;;23.17;76.21;99447.63;345325;28;837;-78
2022/07/08 00:41:52;;;;;;;418.00;374.13;;;;;;;23.17;76.55;99442.28;345212;28;923;-78
2022/07/08 00:42:03;;;;;;;415.45;371.70;;;;;;;23.17;76.22;99450.31;345113;28;1354;-78
2022/07/08 00:42:13;;;;;;;422.17;377.77;;;;;;;23.16;76.31;99446.78;343407;28;1735;-78
2022/07/08 00:42:24;;;;;;;420.03;375.60;;;;;;;23.15;76.22;99449.59;343851;28;1266;-78
2022/07/08 00:42:34;;;;;;;422.52;378.00;;;;;;;23.18;76.55;99446.66;342364;28;1211;-78
2022/07/08 00:42:48;;;;;;;422.40;377.97;;;;;;;23.17;76.12;99448.47;342787;28;1296;-78
2022/07/08 00:42:58;;;;;;;420.15;375.77;;;;;;;23.17;76.35;99444.97;343756;28;1379;-77
2022/07/08 00:43:26;;;;;;;421.63;377.47;;;;;;;23.13;76.19;99443.56;342475;28;1345;-77
2022/07/08 00:43:38;;;;;;;420.73;376.67;;;;;;;23.09;76.29;99444.84;345212;28;920;-77
2022/07/08 00:43:48;;;;;;;422.67;378.42;;;;;;;23.09;76.39;99444.84;345012;28;1290;-77
2022/07/08 00:43:59;;;;;;;420.33;376.10;;;;;;;23.09;76.45;99444.84;346429;28;1014;-77
2022/07/08 00:44:10;;;;;;;420.52;376.20;;;;;;;23.10;76.33;99443.88;344972;28;849;-77
2022/07/08 00:44:21;;;;;;;419.40;375.10;;;;;;;23.11;76.28;99442.88;343864;28;1377;-77
2022/07/08 00:44:32;;;;;;;423.53;379.13;;;;;;;23.11;76.58;99442.88;343743;28;1348;-77
2022/07/08 00:44:42;;;;;;;421.98;377.38;;;;;;;23.12;76.42;99444.56;343692;28;1476;-77
2022/07/08 00:44:52;;;;;;;423.33;378.80;;;;;;;23.11;76.47;99445.53;342558;28;1190;-77
2022/07/08 00:45:03;;;;;;;422.43;377.90;;;;;;;23.12;76.41;99444.56;343958;28;847;-77
2022/07/08 00:45:14;;;;;;;422.33;378.10;;;;;;;23.10;76.60;99441.19;343733;28;1167;-77
2022/07/08 00:45:25;;;;;;;419.42;375.10;;;;;;;23.11;76.68;99443.72;345265;28;1059;-77
2022/07/08 00:45:35;;;;;;;420.65;376.25;;;;;;;23.11;76.45;99440.19;343747;28;1844;-77
2022/07/08 00:45:45;;;;;;;425.63;381.07;;;;;;;23.12;76.86;99439.22;343814;28;1290;-79
2022/07/08 00:45:56;;;;;;;426.52;381.98;;;;;;;23.13;76.64;99440.91;341251;29;1075;-78
2022/07/08 00:46:07;;;;;;;426.63;382.10;;;;;;;23.12;76.71;99444.56;341189;28;1923;-78
2022/07/08 00:46:17;;;;;;;423.20;378.45;;;;;;;23.11;77.00;99437.53;343753;28;1271;-78
2022/07/08 00:46:27;;;;;;;419.47;374.70;;;;;;;23.13;76.35;99448.91;343791;28;1304;-78
2022/07/08 00:46:38;;;;;;;417.60;373.10;;;;;;;23.10;76.73;99442.03;345127;28;1323;-77
2022/07/08 00:46:48;;;;;;;419.90;375.63;;;;;;;23.11;76.83;99446.38;345224;28;823;-77
2022/07/08 00:46:59;;;;;;;421.60;377.43;;;;;;;23.10;77.08;99442.03;343952;28;833;-77
2022/07/08 00:47:09;;;;;;;423.27;379.00;;;;;;;23.10;76.98;99441.19;345299;28;913;-77
2022/07/08 00:47:19;;;;;;;424.30;379.87;;;;;;;23.12;76.96;99439.22;344963;28;1485;-78
2022/07/08 00:47:30;;;;;;;418.67;374.40;;;;;;;23.11;77.12;99440.19;343854;28;901;-78
2022/07/08 00:47:40;;;;;;;420.73;376.30;;;;;;;23.12;76.73;99439.22;342462;28;939;-78
2022/07/08 00:47:51;;;;;;;420.05;375.77;;;;;;;23.12;76.61;99439.22;342354;28;1236;-78
2022/07/08 00:48:01;;;;;;;425.70;381.30;;;;;;;23.12;76.93;99439.22;342614;28;869;-78
2022/07/08 00:48:11;;;;;;;422.60;378.43;;;;;;;23.11;76.99;99437.53;342498;28;1150;-78
2022/07/08 00:48:22;;;;;;;419.52;375.40;;;;;;;23.10;76.66;99439.38;340779;29;2051;-77
2022/07/08 00:48:33;;;;;;;420.83;376.53;;;;;;;23.10;76.68;99436.69;341251;28;4325;-77
2022/07/08 00:48:43;;;;;;;422.80;378.42;;;;;;;23.11;77.02;99442.88;342218;28;1707;-77
2022/07/08 00:48:54;;;;;;;432.30;387.52;;;;;;;23.10;77.23;99439.38;344474;28;1566;-77
2022/07/08 00:49:04;;;;;;;431.57;386.77;;;;;;;23.10;77.11;99438.53;345301;28;860;-77
2022/07/08 00:49:15;;;;;;;430.20;385.38;;;;;;;23.09;77.06;99440.34;345183;28;1011;-77